Time,TemperatureF,DewpointF,PressureIn,WindDirection,WindDirectionDegrees,WindSpeedMPH,WindSpeedGustMPH,Humidity,HourlyPrecipIn,Conditions,Clouds,dailyrainin,SoftwareType,DateUTC
2013-07-19 00:00:00,69.2,69.2,20.00,WNW,296,2.0,4.0,100,0.00,,---,0.00,VWS V13.00,2013-07-19 04:00:00,
2013-07-19 00:30:00,69.2,69.2,19.99,WNW,296,0.0,3.0,100,0.00,,---,0.00,VWS V13.00,2013-07-19 04:30:00,
2013-07-19 01:00:00,70.2,70.2,19.99,WNW,296,0.0,4.0,100,0.00,,---,0.00,VWS V13.00,2013-07-19 05:00:00,
2013-07-19 01:30:00,71.1,71.1,19.99,West,274,3.0,13.0,100,0.00,,---,0.00,VWS V13.00,2013-07-19 05:30:00,
2013-07-19 02:00:00,71.4,71.4,19.99,WSW,254,3.0,10.0,100,0.00,,---,0.00,VWS V13.00,2013-07-19 06:00:00,
2013-07-19 02:30:00,71.0,71.0,19.99,WNW,288,4.0,12.0,100,0.00,,---,0.00,VWS V13.00,2013-07-19 06:30:00,
2013-07-19 03:00:00,71.6,71.6,19.99,West,269,2.0,9.0,100,0.00,,---,0.00,VWS V13.00,2013-07-19 07:00:00,
2013-07-19 03:30:00,71.1,71.1,19.99,West,268,3.0,8.0,100,0.00,,---,0.00,VWS V13.00,2013-07-19 07:30:00,
2013-07-19 04:00:00,69.8,69.8,20.00,South,181,0.0,4.0,100,0.00,,---,0.00,VWS V13.00,2013-07-19 08:00:00,
2013-07-19 05:30:00,70.6,70.6,19.99,WSW,241,1.0,7.0,100,0.00,,---,0.00,VWS V13.00,2013-07-19 09:30:00,
2013-07-19 06:00:00,71.0,71.0,19.99,WNW,289,1.0,5.0,100,0.00,,---,0.00,VWS V13.00,2013-07-19 10:00:00,
2013-07-19 06:30:00,70.8,70.8,20.00,WNW,282,0.0,5.0,100,0.00,,---,0.00,VWS V13.00,2013-07-19 10:30:00,
2013-07-19 07:00:00,72.3,72.3,19.99,WSW,254,3.0,10.0,100,0.00,,---,0.00,VWS V13.00,2013-07-19 11:00:00,
2013-07-19 07:30:00,73.1,73.1,19.99,SW,224,2.0,7.0,100,0.00,,---,0.00,VWS V13.00,2013-07-19 11:30:00,
2013-07-19 08:00:00,76.1,76.1,19.99,West,274,3.0,9.0,100,0.00,,---,0.00,VWS V13.00,2013-07-19 12:00:00,
2013-07-19 08:30:00,79.6,79.6,19.99,West,273,7.0,18.0,100,0.00,,---,0.00,VWS V13.00,2013-07-19 12:30:00,
2013-07-19 09:00:00,79.3,79.3,19.99,WSW,250,2.0,12.0,100,0.00,,---,0.00,VWS V13.00,2013-07-19 13:00:00,
2013-07-19 09:30:00,80.5,80.5,19.99,West,280,11.0,16.0,100,0.00,,---,0.00,VWS V13.00,2013-07-19 13:30:00,
2013-07-19 10:00:00,81.1,81.1,19.99,WSW,246,7.0,21.0,100,0.00,,---,0.00,VWS V13.00,2013-07-19 14:00:00,
2013-07-19 10:30:00,82.2,82.2,19.99,WNW,284,17.0,23.0,100,0.00,,---,0.00,VWS V13.00,2013-07-19 14:30:00,
2013-07-19 11:00:00,82.9,82.9,20.00,West,279,14.0,25.0,100,0.00,,---,0.00,VWS V13.00,2013-07-19 15:00:00,
2013-07-19 11:30:00,83.4,83.4,19.99,West,274,13.0,26.0,100,0.00,,---,0.00,VWS V13.00,2013-07-19 15:30:00,
2013-07-19 12:00:00,83.1,83.1,19.99,West,268,10.0,28.0,100,0.00,,---,0.00,VWS V13.00,2013-07-19 16:00:00,
2013-07-19 12:30:00,83.2,83.2,19.99,WSW,248,13.0,28.0,100,0.00,,---,0.00,VWS V13.00,2013-07-19 16:30:00,
2013-07-19 13:00:00,84.6,84.6,20.00,WSW,245,12.0,25.0,100,0.00,,---,0.00,VWS V13.00,2013-07-19 17:00:00,
2013-07-19 13:30:00,85.1,85.1,19.99,WSW,247,8.0,20.0,100,0.00,,---,0.00,VWS V13.00,2013-07-19 17:30:00,
2013-07-19 14:00:00,85.8,85.8,19.99,SW,214,14.0,29.0,100,0.00,,---,0.00,VWS V13.00,2013-07-19 18:00:00,
2013-07-19 14:30:00,86.3,86.3,19.99,West,281,10.0,27.0,100,0.00,,---,0.00,VWS V13.00,2013-07-19 18:30:00,
2013-07-19 15:00:00,86.2,86.2,19.99,West,271,9.0,27.0,100,0.00,,---,0.00,VWS V13.00,2013-07-19 19:00:00,
2013-07-19 15:30:00,86.3,86.3,19.99,WSW,258,22.0,26.0,100,0.00,,---,0.00,VWS V13.00,2013-07-19 19:30:00,
2013-07-19 16:00:00,86.8,86.8,19.99,WNW,284,16.0,32.0,100,0.00,,---,0.00,VWS V13.00,2013-07-19 20:00:00,
2013-07-19 16:30:00,85.7,85.7,19.99,West,261,11.0,31.0,100,0.00,,---,0.00,VWS V13.00,2013-07-19 20:30:00,
2013-07-19 17:00:00,85.0,85.0,19.99,West,263,9.0,23.0,100,0.00,,---,0.00,VWS V13.00,2013-07-19 21:00:00,
2013-07-19 17:30:00,84.5,84.5,20.00,WSW,237,7.0,22.0,100,0.00,,---,0.00,VWS V13.00,2013-07-19 21:30:00,
2013-07-19 18:00:00,84.0,84.0,19.99,WSW,246,11.0,24.0,100,0.00,,---,0.00,VWS V13.00,2013-07-19 22:00:00,
2013-07-19 18:30:00,83.5,83.5,19.99,SW,235,10.0,29.0,100,0.00,,---,0.00,VWS V13.00,2013-07-19 22:30:00,
2013-07-19 19:00:00,82.6,82.6,19.99,WSW,243,12.0,26.0,100,0.00,,---,0.00,VWS V13.00,2013-07-19 23:00:00,
2013-07-19 19:30:00,81.7,81.7,19.99,SW,215,7.0,34.0,100,0.00,,---,0.00,VWS V13.00,2013-07-19 23:30:00,
2013-07-19 20:00:00,80.9,80.9,19.99,SSW,212,7.0,20.0,100,0.00,,---,0.00,VWS V13.00,2013-07-20 00:00:00,
2013-07-19 20:30:00,80.3,80.3,19.99,WSW,251,6.0,19.0,100,0.00,,---,0.00,VWS V13.00,2013-07-20 00:30:00,
2013-07-19 21:00:00,80.2,80.2,19.99,West,265,2.0,25.0,100,0.00,,---,0.00,VWS V13.00,2013-07-20 01:00:00,
2013-07-19 21:30:00,80.3,80.3,19.99,West,271,17.0,21.0,100,0.00,,---,0.00,VWS V13.00,2013-07-20 01:30:00,
2013-07-19 22:00:00,79.9,79.9,19.99,West,260,6.0,18.0,100,0.00,,---,0.00,VWS V13.00,2013-07-20 02:00:00,
2013-07-19 22:30:00,79.3,79.3,20.00,SW,235,4.0,21.0,100,0.00,,---,0.00,VWS V13.00,2013-07-20 02:30:00,
2013-07-19 23:00:00,78.1,78.1,19.99,West,270,9.0,30.0,100,0.00,,---,0.00,VWS V13.00,2013-07-20 03:00:00,
2013-07-19 23:30:00,76.2,76.2,20.00,West,278,8.0,31.0,100,0.00,,---,0.00,VWS V13.00,2013-07-20 03:30:00,